createdAt,value
2022-07-29T00:02:26.486Z,13.70
2022-07-29T00:04:53.614Z,13.70
2022-07-29T00:07:20.903Z,13.70
2022-07-29T00:09:51.811Z,13.70
2022-07-29T00:12:25.612Z,13.70
2022-07-29T00:14:55.695Z,13.60
2022-07-29T00:17:23.061Z,13.60
2022-07-29T00:19:49.831Z,13.60
2022-07-29T00:22:16.535Z,13.50
2022-07-29T00:24:43.543Z,13.50
2022-07-29T00:27:11.629Z,13.50
2022-07-29T00:29:38.514Z,13.50
2022-07-29T00:32:05.873Z,13.50
2022-07-29T00:34:32.747Z,13.40
2022-07-29T00:36:59.446Z,13.40
2022-07-29T00:39:26.339Z,13.40
2022-07-29T00:41:54.361Z,13.40
2022-07-29T00:44:22.533Z,13.40
2022-07-29T00:46:49.378Z,13.40
2022-07-29T00:49:16.164Z,13.30
2022-07-29T00:51:43.440Z,13.30
2022-07-29T00:54:10.842Z,13.30
2022-07-29T00:56:37.947Z,13.30
2022-07-29T00:59:04.764Z,13.30
2022-07-29T01:01:32.887Z,13.20
2022-07-29T01:03:59.894Z,13.20
2022-07-29T01:06:27.522Z,13.20
2022-07-29T01:08:54.538Z,13.10
2022-07-29T01:11:21.976Z,13.10
2022-07-29T01:13:48.736Z,13.10
2022-07-29T01:16:21.950Z,13.10
2022-07-29T01:18:55.309Z,13.00
2022-07-29T01:21:42.344Z,13.00
2022-07-29T01:24:22.004Z,13.00
2022-07-29T01:26:53.274Z,13.00
2022-07-29T01:29:35.823Z,13.00
2022-07-29T01:32:08.122Z,12.90
2022-07-29T01:34:51.508Z,12.90
2022-07-29T01:37:22.075Z,12.90
2022-07-29T01:39:52.145Z,12.90
2022-07-29T01:42:28.541Z,12.90
2022-07-29T01:45:00.291Z,12.90
2022-07-29T01:47:35.700Z,12.90
2022-07-29T01:50:06.890Z,12.90
2022-07-29T01:52:38.761Z,12.90
2022-07-29T01:55:10.425Z,12.90
2022-07-29T01:57:41.254Z,12.80
2022-07-29T02:00:11.447Z,12.80
2022-07-29T02:02:44.663Z,12.80
2022-07-29T02:05:14.806Z,12.80
2022-07-29T02:07:43.881Z,12.80
2022-07-29T02:10:12.913Z,12.80
2022-07-29T02:12:41.308Z,12.80
2022-07-29T02:15:11.613Z,12.80
2022-07-29T02:17:44.791Z,12.70
2022-07-29T02:20:13.013Z,12.70
2022-07-29T02:22:41.158Z,12.70
2022-07-29T02:25:14.139Z,12.70
2022-07-29T02:27:43.934Z,12.70
2022-07-29T02:30:13.469Z,12.70
2022-07-29T02:32:44.399Z,12.70
2022-07-29T02:35:15.862Z,12.70
2022-07-29T02:37:44.525Z,12.70
2022-07-29T02:40:12.836Z,12.70
2022-07-29T02:42:42.041Z,12.70
2022-07-29T02:45:10.287Z,12.70
2022-07-29T02:47:43.551Z,12.70
2022-07-29T02:50:13.753Z,12.70
2022-07-29T02:52:43.656Z,12.70
2022-07-29T02:55:17.444Z,12.70
2022-07-29T02:57:55.012Z,12.60
2022-07-29T03:00:24.735Z,12.60
2022-07-29T03:02:55.716Z,12.60
2022-07-29T03:05:23.915Z,12.60
2022-07-29T03:07:55.999Z,12.60
2022-07-29T03:10:24.246Z,12.60
2022-07-29T03:12:51.508Z,12.60
2022-07-29T03:15:19.476Z,12.60
2022-07-29T03:17:47.040Z,12.60
2022-07-29T03:20:15.404Z,12.70
2022-07-29T03:22:43.399Z,12.70
2022-07-29T03:25:10.793Z,12.70
2022-07-29T03:27:37.834Z,12.70
2022-07-29T03:30:05.495Z,12.70
2022-07-29T03:32:36.214Z,12.70
2022-07-29T03:35:03.705Z,12.70
2022-07-29T03:37:32.163Z,12.70
2022-07-29T03:39:59.320Z,12.70
2022-07-29T03:42:34.071Z,12.80
2022-07-29T03:45:04.483Z,12.70
2022-07-29T03:47:43.513Z,12.70
2022-07-29T03:50:19.566Z,12.80
2022-07-29T03:52:48.384Z,12.80
2022-07-29T03:55:15.689Z,12.80
2022-07-29T03:57:43.018Z,12.90
2022-07-29T04:00:10.643Z,12.90
2022-07-29T04:02:38.806Z,12.90
2022-07-29T04:05:06.007Z,12.90
2022-07-29T04:07:32.764Z,13.00
2022-07-29T04:10:00.873Z,13.00
2022-07-29T04:12:27.711Z,13.00
2022-07-29T04:14:54.495Z,13.10
2022-07-29T04:17:21.199Z,13.20
2022-07-29T04:19:48.180Z,13.30
2022-07-29T04:22:14.868Z,13.30
2022-07-29T04:24:44.330Z,13.40
2022-07-29T04:27:14.604Z,13.50
2022-07-29T04:29:57.116Z,13.50
2022-07-29T04:32:24.412Z,13.60
2022-07-29T04:34:51.324Z,13.60
2022-07-29T04:37:18.270Z,13.70
2022-07-29T04:39:44.993Z,13.70
2022-07-29T04:42:13.480Z,13.80
2022-07-29T04:44:44.431Z,13.80
2022-07-29T04:47:12.254Z,13.90
2022-07-29T04:49:39.671Z,14.00
2022-07-29T04:52:07.135Z,14.00
2022-07-29T04:54:34.044Z,14.10
2022-07-29T04:57:00.784Z,14.20
2022-07-29T04:59:28.860Z,14.30
2022-07-29T05:01:55.807Z,14.30
2022-07-29T05:04:23.917Z,14.40
2022-07-29T05:06:50.714Z,14.50
2022-07-29T05:09:17.454Z,14.50
2022-07-29T05:11:50.034Z,14.60
2022-07-29T05:14:17.269Z,14.70
2022-07-29T05:16:45.564Z,14.80
2022-07-29T05:19:14.377Z,14.80
2022-07-29T05:21:41.987Z,14.90
2022-07-29T05:24:09.008Z,14.90
2022-07-29T05:26:35.790Z,15.00
2022-07-29T05:29:02.657Z,15.10
2022-07-29T05:31:31.355Z,15.10
2022-07-29T05:34:02.240Z,15.20
2022-07-29T05:36:29.433Z,15.20
2022-07-29T05:38:58.421Z,15.30
2022-07-29T05:41:25.177Z,15.40
2022-07-29T05:43:52.034Z,15.40
2022-07-29T05:46:18.997Z,15.50
2022-07-29T05:48:45.690Z,15.50
2022-07-29T05:51:14.490Z,15.60
2022-07-29T05:53:41.366Z,15.60
2022-07-29T05:56:08.175Z,15.70
2022-07-29T05:58:34.997Z,15.80
2022-07-29T06:03:57.048Z,16.00
2022-07-29T06:06:25.365Z,16.10
2022-07-29T06:08:52.145Z,16.20
2022-07-29T06:11:18.997Z,16.30
2022-07-29T06:13:45.676Z,16.30
2022-07-29T06:16:12.489Z,16.40
2022-07-29T06:18:42.507Z,16.50
2022-07-29T06:21:10.263Z,16.60
2022-07-29T06:23:38.869Z,16.70
2022-07-29T06:26:05.863Z,16.80
2022-07-29T06:28:32.891Z,17.00
2022-07-29T06:30:59.981Z,17.10
2022-07-29T06:33:26.866Z,17.20
2022-07-29T06:35:55.240Z,17.40
2022-07-29T06:38:31.492Z,17.50
2022-07-29T06:41:02.972Z,17.60
2022-07-29T06:43:34.973Z,17.70
2022-07-29T06:46:03.727Z,17.80
2022-07-29T06:48:30.933Z,17.90
2022-07-29T06:50:57.938Z,18.00
2022-07-29T06:53:29.573Z,18.20
2022-07-29T06:55:56.506Z,18.30
2022-07-29T06:58:24.554Z,18.50
2022-07-29T07:00:58.379Z,18.70
2022-07-29T07:03:25.630Z,18.90
2022-07-29T07:05:53.674Z,19.30
2022-07-29T07:08:20.511Z,19.60
2022-07-29T07:10:47.467Z,19.70
2022-07-29T07:13:15.401Z,19.90
2022-07-29T07:15:44.143Z,20.00
2022-07-29T07:18:11.086Z,20.00
2022-07-29T07:20:38.987Z,20.20
2022-07-29T07:23:11.767Z,20.30
2022-07-29T07:25:38.691Z,20.30
2022-07-29T07:28:05.634Z,20.40
2022-07-29T07:30:32.690Z,20.40
2022-07-29T07:33:00.773Z,20.50
2022-07-29T07:35:27.687Z,20.60
2022-07-29T07:37:54.336Z,20.70
2022-07-29T07:40:23.794Z,20.90
2022-07-29T07:42:51.020Z,21.10
2022-07-29T07:45:17.791Z,21.50
2022-07-29T07:47:47.056Z,21.90
2022-07-29T07:50:19.349Z,22.50
2022-07-29T07:52:50.827Z,23.10
2022-07-29T07:55:22.811Z,23.30
2022-07-29T07:57:49.543Z,23.90
2022-07-29T08:00:17.695Z,24.50
2022-07-29T08:02:44.587Z,24.90
2022-07-29T08:05:12.940Z,25.20
2022-07-29T08:07:41.112Z,25.30
2022-07-29T08:10:08.698Z,25.50
2022-07-29T08:12:35.345Z,25.60
2022-07-29T08:15:02.240Z,25.60
2022-07-29T08:17:29.014Z,26.00
2022-07-29T08:19:55.906Z,26.60
2022-07-29T08:22:24.693Z,27.00
2022-07-29T08:24:52.801Z,27.20
2022-07-29T08:27:41.828Z,27.20
2022-07-29T08:30:08.119Z,26.90
2022-07-29T08:32:53.295Z,26.60
2022-07-29T08:35:21.126Z,27.10
2022-07-29T08:37:48.584Z,26.80
2022-07-29T08:40:17.358Z,26.30
2022-07-29T08:42:50.460Z,26.50
2022-07-29T08:45:21.385Z,27.00
2022-07-29T08:47:48.304Z,27.00
2022-07-29T08:50:15.150Z,27.00
2022-07-29T08:52:42.483Z,27.30
2022-07-29T08:55:12.651Z,27.60
2022-07-29T08:57:50.774Z,27.80
2022-07-29T09:00:23.007Z,27.80
2022-07-29T09:02:56.853Z,27.70
2022-07-29T09:05:25.145Z,27.90
2022-07-29T09:07:55.510Z,28.30
2022-07-29T09:10:23.908Z,28.50
2022-07-29T09:12:52.405Z,28.70
2022-07-29T09:15:19.174Z,28.80
2022-07-29T09:17:47.724Z,29.00
2022-07-29T09:20:16.796Z,29.10
2022-07-29T09:22:43.693Z,29.20
2022-07-29T09:25:12.784Z,29.30
2022-07-29T09:27:40.074Z,29.60
2022-07-29T09:30:10.657Z,29.80
2022-07-29T09:32:57.793Z,29.90
2022-07-29T09:35:25.870Z,30.20
2022-07-29T09:37:53.359Z,30.40
2022-07-29T09:40:25.839Z,30.60
2022-07-29T09:42:54.008Z,30.90
2022-07-29T09:45:30.422Z,31.20
2022-07-29T09:47:58.128Z,31.60
2022-07-29T09:50:36.389Z,31.60
2022-07-29T09:53:04.431Z,31.20
2022-07-29T09:55:46.614Z,31.10
2022-07-29T09:58:17.499Z,30.90
2022-07-29T10:00:47.998Z,30.90
2022-07-29T10:03:15.396Z,30.70
2022-07-29T10:05:43.090Z,30.30
2022-07-29T10:08:11.149Z,30.20
2022-07-29T10:10:40.018Z,30.60
2022-07-29T10:13:15.713Z,31.20
2022-07-29T10:15:44.776Z,31.40
2022-07-29T10:18:15.992Z,31.70
2022-07-29T10:20:42.895Z,31.80
2022-07-29T10:23:12.880Z,32.00
2022-07-29T10:25:45.635Z,32.00
2022-07-29T10:28:16.815Z,32.00
2022-07-29T10:30:45.536Z,32.20
2022-07-29T10:33:29.454Z,32.60
2022-07-29T10:36:08.193Z,32.70
2022-07-29T10:38:45.704Z,32.80
2022-07-29T10:41:25.153Z,32.70
2022-07-29T10:43:55.285Z,32.80
2022-07-29T10:46:22.870Z,32.80
2022-07-29T10:49:15.854Z,33.20
2022-07-29T10:52:01.070Z,33.60
2022-07-29T10:54:47.166Z,33.90
2022-07-29T10:57:57.728Z,34.20
2022-07-29T11:00:33.085Z,34.50
2022-07-29T11:03:00.224Z,34.50
2022-07-29T11:05:40.117Z,34.40
2022-07-29T11:08:26.516Z,34.40
2022-07-29T11:11:36.545Z,34.50
2022-07-29T11:14:04.339Z,33.50
2022-07-29T11:17:05.942Z,33.40
2022-07-29T11:19:33.973Z,33.30
2022-07-29T11:22:11.476Z,33.70
2022-07-29T11:24:39.193Z,33.50
2022-07-29T11:27:20.040Z,34.00
2022-07-29T11:29:55.562Z,33.80
2022-07-29T11:32:29.448Z,33.30
2022-07-29T11:35:18.429Z,33.20
2022-07-29T11:37:52.773Z,33.10
2022-07-29T11:40:22.700Z,33.40
2022-07-29T11:43:00.250Z,33.20
2022-07-29T11:45:45.605Z,32.60
2022-07-29T11:51:12.104Z,31.60
2022-07-29T11:53:48.045Z,31.40
2022-07-29T11:56:22.275Z,31.30
2022-07-29T11:59:03.972Z,31.30
2022-07-29T12:01:35.680Z,31.20
2022-07-29T12:04:06.884Z,31.10
2022-07-29T12:06:34.005Z,31.10
2022-07-29T12:09:08.081Z,31.00
2022-07-29T12:11:41.231Z,30.90
2022-07-29T12:14:08.071Z,30.80
2022-07-29T12:16:36.654Z,30.70
2022-07-29T12:19:04.397Z,30.80
2022-07-29T12:21:45.690Z,30.70
2022-07-29T12:24:17.978Z,30.80
2022-07-29T12:26:53.796Z,30.90
2022-07-29T12:29:33.989Z,30.90
2022-07-29T12:32:04.307Z,31.20
2022-07-29T12:34:33.775Z,31.50
2022-07-29T12:37:01.368Z,31.70
2022-07-29T12:39:29.632Z,31.80
2022-07-29T12:42:03.914Z,32.20
2022-07-29T12:44:44.813Z,33.90
2022-07-29T12:47:11.691Z,34.20
2022-07-29T12:49:38.721Z,34.70
2022-07-29T12:52:27.117Z,35.60
2022-07-29T12:54:55.454Z,36.10
2022-07-29T12:57:22.382Z,36.30
2022-07-29T13:00:06.961Z,35.90
2022-07-29T13:02:33.889Z,34.90
2022-07-29T13:05:02.274Z,34.40
2022-07-29T13:07:54.042Z,34.50
2022-07-29T13:10:23.921Z,34.50
2022-07-29T13:13:08.173Z,33.90
2022-07-29T13:15:36.187Z,33.70
2022-07-29T13:18:03.144Z,33.50
2022-07-29T13:20:30.415Z,32.80
2022-07-29T13:22:59.601Z,32.20
2022-07-29T13:25:29.840Z,31.50
2022-07-29T13:27:56.976Z,31.10
2022-07-29T13:30:24.429Z,30.90
2022-07-29T13:32:52.872Z,30.80
2022-07-29T13:35:20.268Z,30.60
2022-07-29T13:37:47.027Z,30.50
2022-07-29T13:40:14.472Z,30.40
2022-07-29T13:42:42.949Z,30.10
2022-07-29T13:45:11.110Z,29.80
2022-07-29T13:47:38.058Z,29.40
2022-07-29T13:50:07.051Z,29.30
2022-07-29T13:52:34.228Z,29.80
2022-07-29T13:55:00.970Z,30.00
2022-07-29T13:57:28.517Z,29.90
2022-07-29T13:59:56.720Z,29.70
2022-07-29T14:02:25.438Z,29.70
2022-07-29T14:04:53.395Z,29.90
2022-07-29T14:07:20.359Z,30.40
2022-07-29T14:09:46.994Z,31.10
2022-07-29T14:12:13.774Z,31.70
2022-07-29T14:14:40.496Z,31.90
2022-07-29T14:17:08.663Z,32.10
2022-07-29T14:19:36.342Z,32.40
2022-07-29T14:22:03.559Z,32.60
2022-07-29T14:24:30.683Z,32.80
2022-07-29T14:26:59.838Z,32.90
2022-07-29T14:29:36.866Z,32.80
2022-07-29T14:32:06.606Z,32.90
2022-07-29T14:34:35.424Z,32.90
2022-07-29T14:37:02.357Z,33.00
2022-07-29T14:39:31.714Z,33.20
2022-07-29T14:41:59.621Z,33.10
2022-07-29T14:44:26.723Z,32.50
2022-07-29T14:46:53.546Z,31.90
2022-07-29T14:49:20.304Z,31.30
2022-07-29T14:51:48.570Z,31.10
2022-07-29T14:54:15.374Z,30.70
2022-07-29T14:56:46.821Z,30.30
2022-07-29T14:59:13.922Z,30.20
2022-07-29T15:01:40.791Z,30.20
2022-07-29T15:04:07.749Z,30.00
2022-07-29T15:06:34.469Z,30.00
2022-07-29T15:09:02.601Z,30.10
2022-07-29T15:11:29.356Z,30.20
2022-07-29T15:13:56.154Z,29.80
2022-07-29T15:16:22.897Z,30.30
2022-07-29T15:18:50.022Z,30.70
2022-07-29T15:21:16.812Z,31.20
2022-07-29T15:23:43.531Z,31.50
2022-07-29T15:26:11.895Z,31.70
2022-07-29T15:28:38.742Z,31.70
2022-07-29T15:31:05.454Z,31.60
2022-07-29T15:33:32.164Z,31.60
2022-07-29T15:35:59.283Z,31.40
2022-07-29T15:38:28.587Z,30.90
2022-07-29T15:40:55.920Z,31.00
2022-07-29T15:43:24.390Z,31.10
2022-07-29T15:45:53.313Z,31.20
2022-07-29T15:48:20.057Z,31.40
2022-07-29T15:50:47.266Z,31.60
2022-07-29T15:53:14.119Z,31.70
2022-07-29T15:55:40.989Z,31.70
2022-07-29T15:58:11.295Z,31.70
2022-07-29T16:00:39.472Z,31.70
2022-07-29T16:03:06.199Z,31.50
2022-07-29T16:05:32.987Z,31.40
2022-07-29T16:07:59.786Z,31.30
2022-07-29T16:10:26.662Z,31.20
2022-07-29T16:12:53.373Z,31.20
2022-07-29T16:15:20.050Z,31.20
2022-07-29T16:17:48.237Z,31.00
2022-07-29T16:20:14.861Z,30.70
2022-07-29T16:22:41.745Z,30.20
2022-07-29T16:25:09.559Z,29.70
2022-07-29T16:27:38.110Z,29.30
2022-07-29T16:30:06.940Z,29.20
2022-07-29T16:32:33.637Z,29.00
2022-07-29T16:35:01.729Z,28.70
2022-07-29T16:37:28.788Z,28.50
2022-07-29T16:39:55.739Z,28.20
2022-07-29T16:42:44.277Z,27.90
2022-07-29T16:45:10.040Z,27.50
2022-07-29T16:47:37.473Z,27.30
2022-07-29T16:50:07.457Z,27.30
2022-07-29T16:52:34.410Z,27.20
2022-07-29T16:55:01.015Z,27.00
2022-07-29T16:57:27.980Z,26.80
2022-07-29T16:59:54.845Z,26.70
2022-07-29T17:02:21.704Z,26.60
2022-07-29T17:04:48.698Z,26.50
2022-07-29T17:07:17.204Z,26.40
2022-07-29T17:09:44.033Z,26.30
2022-07-29T17:12:10.695Z,26.20
2022-07-29T17:14:37.930Z,26.10
2022-07-29T17:17:05.226Z,25.90
2022-07-29T17:19:42.976Z,25.70
2022-07-29T17:22:15.610Z,25.60
2022-07-29T17:24:47.092Z,25.50
2022-07-29T17:27:14.100Z,25.40
2022-07-29T17:29:41.194Z,25.40
2022-07-29T17:32:09.535Z,25.40
2022-07-29T17:34:37.037Z,25.30
2022-07-29T17:37:04.745Z,25.20
2022-07-29T17:39:31.483Z,25.10
2022-07-29T17:41:59.670Z,25.00
2022-07-29T17:44:26.487Z,24.90
2022-07-29T17:46:53.273Z,24.80
2022-07-29T17:49:20.192Z,24.70
2022-07-29T17:51:47.128Z,24.70
2022-07-29T17:54:13.900Z,24.70
2022-07-29T17:56:40.755Z,24.60
2022-07-29T17:59:08.862Z,24.50
2022-07-29T18:01:36.422Z,24.40
2022-07-29T18:04:03.337Z,24.30
2022-07-29T18:06:30.028Z,24.30
2022-07-29T18:08:56.887Z,24.20
2022-07-29T18:11:23.688Z,24.10
2022-07-29T18:13:50.550Z,24.10
2022-07-29T18:16:19.121Z,24.00
2022-07-29T18:18:46.151Z,24.00
2022-07-29T18:21:12.872Z,23.90
2022-07-29T18:23:39.868Z,23.80
2022-07-29T18:26:06.609Z,23.80
2022-07-29T18:28:33.363Z,23.70
2022-07-29T18:31:00.863Z,23.60
2022-07-29T18:33:29.047Z,23.50
2022-07-29T18:36:04.265Z,23.40
2022-07-29T18:38:39.091Z,23.30
2022-07-29T18:41:05.792Z,23.20
2022-07-29T18:43:32.649Z,23.10
2022-07-29T18:45:59.322Z,23.00
2022-07-29T18:48:26.392Z,22.90
2022-07-29T18:50:54.435Z,22.90
2022-07-29T18:53:21.450Z,22.80
2022-07-29T18:55:48.226Z,22.70
2022-07-29T18:58:14.948Z,22.70
2022-07-29T19:00:41.726Z,22.60
2022-07-29T19:03:09.100Z,22.60
2022-07-29T19:05:35.932Z,22.50
2022-07-29T19:08:04.435Z,22.40
2022-07-29T19:10:31.240Z,22.30
2022-07-29T19:12:57.967Z,22.30
2022-07-29T19:15:24.959Z,22.20
2022-07-29T19:17:51.717Z,22.10
2022-07-29T19:20:18.494Z,22.10
2022-07-29T19:22:46.132Z,22.00
2022-07-29T19:25:14.124Z,22.00
2022-07-29T19:27:42.097Z,21.90
2022-07-29T19:30:09.409Z,21.90
2022-07-29T19:32:36.834Z,21.90
2022-07-29T19:35:05.268Z,21.80
2022-07-29T19:37:32.071Z,21.80
2022-07-29T19:39:58.829Z,21.70
2022-07-29T19:42:27.152Z,21.70
2022-07-29T19:44:53.955Z,21.60
2022-07-29T19:47:20.726Z,21.50
2022-07-29T19:49:47.749Z,21.50
2022-07-29T19:52:14.459Z,21.40
2022-07-29T19:54:41.192Z,21.40
2022-07-29T19:57:08.010Z,21.30
2022-07-29T19:59:36.171Z,21.30
2022-07-29T20:02:02.938Z,21.30
2022-07-29T20:04:30.681Z,21.20
2022-07-29T20:06:58.787Z,21.20
2022-07-29T20:09:25.764Z,21.20
2022-07-29T20:11:52.507Z,21.20
2022-07-29T20:14:19.330Z,21.10
2022-07-29T20:16:47.403Z,21.10
2022-07-29T20:19:14.229Z,21.00
2022-07-29T20:21:41.031Z,21.00
2022-07-29T20:24:08.735Z,21.00
2022-07-29T20:26:35.447Z,21.00
2022-07-29T20:29:02.137Z,20.90
2022-07-29T20:31:28.909Z,20.90
2022-07-29T20:33:57.121Z,20.80
2022-07-29T20:36:23.778Z,20.80
2022-07-29T20:38:50.673Z,20.70
2022-07-29T20:41:17.461Z,20.70
2022-07-29T20:43:44.113Z,20.70
2022-07-29T20:46:11.230Z,20.60
2022-07-29T20:48:38.243Z,20.60
2022-07-29T20:51:06.714Z,20.50
2022-07-29T20:53:33.443Z,20.50
2022-07-29T20:56:00.314Z,20.40
2022-07-29T20:58:27.107Z,20.40
2022-07-29T21:00:53.892Z,20.40
2022-07-29T21:03:21.162Z,20.40
2022-07-29T21:05:48.055Z,20.30
2022-07-29T21:08:16.354Z,20.30
2022-07-29T21:10:43.208Z,20.30
2022-07-29T21:13:09.913Z,20.20
2022-07-29T21:15:36.715Z,20.20
2022-07-29T21:18:09.302Z,20.20
2022-07-29T21:20:36.271Z,20.20
2022-07-29T21:23:03.117Z,20.20
2022-07-29T21:25:31.148Z,20.20
2022-07-29T21:27:57.767Z,20.20
2022-07-29T21:30:24.593Z,20.20
2022-07-29T21:32:51.516Z,20.20
2022-07-29T21:36:01.703Z,20.20
2022-07-29T21:38:05.125Z,20.20
2022-07-29T21:40:33.386Z,20.20
2022-07-29T21:43:00.036Z,20.20
2022-07-29T21:45:26.815Z,20.10
2022-07-29T21:47:53.757Z,20.10
2022-07-29T21:50:20.693Z,20.10
2022-07-29T21:52:47.487Z,20.10
2022-07-29T21:55:14.289Z,20.10
2022-07-29T21:57:42.350Z,20.10
2022-07-29T22:00:11.904Z,20.10
2022-07-29T22:02:41.775Z,20.10
2022-07-29T22:05:09.824Z,20.10
2022-07-29T22:07:55.676Z,20.00
2022-07-29T22:10:24.088Z,20.00
2022-07-29T22:12:53.540Z,20.00
2022-07-29T22:15:20.452Z,20.00
2022-07-29T22:17:47.947Z,20.00
2022-07-29T22:20:14.679Z,20.00
2022-07-29T22:22:41.942Z,20.00
2022-07-29T22:25:10.524Z,20.00
2022-07-29T22:27:38.106Z,19.90
2022-07-29T22:30:07.953Z,19.90
2022-07-29T22:32:34.655Z,19.90
2022-07-29T22:35:01.444Z,19.90
2022-07-29T22:37:28.287Z,19.80
2022-07-29T22:39:54.993Z,19.80
2022-07-29T22:42:21.925Z,19.80
2022-07-29T22:44:48.544Z,19.70
2022-07-29T22:47:16.719Z,19.70
2022-07-29T22:49:43.461Z,19.70
2022-07-29T22:52:10.152Z,19.70
2022-07-29T22:54:36.952Z,19.70
2022-07-29T22:57:04.084Z,19.70
2022-07-29T22:59:30.936Z,19.70
2022-07-29T23:01:57.702Z,19.70
2022-07-29T23:04:25.981Z,19.70
2022-07-29T23:06:52.762Z,19.70
2022-07-29T23:09:19.472Z,19.70
2022-07-29T23:11:46.262Z,19.70
2022-07-29T23:14:13.148Z,19.70
2022-07-29T23:16:40.184Z,19.70
2022-07-29T23:19:07.010Z,19.60
2022-07-29T23:21:35.263Z,19.60
2022-07-29T23:24:02.043Z,19.60
2022-07-29T23:26:28.757Z,19.60
2022-07-29T23:28:55.485Z,19.60
2022-07-29T23:31:22.258Z,19.60
2022-07-29T23:33:48.965Z,19.60
2022-07-29T23:36:15.826Z,19.50
2022-07-29T23:38:43.873Z,19.50
2022-07-29T23:41:10.596Z,19.50
2022-07-29T23:43:40.330Z,19.40
2022-07-29T23:46:07.093Z,19.40
2022-07-29T23:48:34.440Z,19.40
2022-07-29T23:51:01.582Z,19.40
2022-07-29T23:53:28.446Z,19.40
2022-07-29T23:55:57.361Z,19.30
2022-07-29T23:58:24.184Z,19.30
